Time;durP1;ratioP1;P1;durP2;ratioP2;P2;SDS_P1;SDS_P2;PMS_P1;PMS_P2;Temp;Humidity;BMP_temperature;BMP_pressure;BME280_temperature;BME280_humidity;BME280_pressure;Samples;Min_cycle;Max_cycle;Signal;HPM_P1;HPM_P2
2021/04/19 00:00:32;;;;;;;20.52;18.35;;;18.70;55.60;;;;;;5013390;28;20507;-70
2021/04/19 00:02:58;;;;;;;19.88;17.75;;;18.70;55.70;;;;;;5012887;28;20041;-70
2021/04/19 00:05:24;;;;;;;22.60;17.50;;;18.70;55.80;;;;;;5013194;28;20041;-70
2021/04/19 00:07:49;;;;;;;19.17;17.25;;;18.70;55.80;;;;;;5013102;28;20076;-70
2021/04/19 00:10:17;;;;;;;20.05;17.80;;;18.70;56.00;;;;;;5013257;28;20030;-70
2021/04/19 00:12:43;;;;;;;19.50;17.50;;;18.60;55.80;;;;;;5012728;28;20093;-69
2021/04/19 00:15:11;;;;;;;21.20;17.23;;;18.70;55.90;;;;;;5002695;28;20457;-70
2021/04/19 00:17:37;;;;;;;19.40;17.17;;;18.60;55.90;;;;;;5002967;28;20088;-69
2021/04/19 00:20:04;;;;;;;18.08;16.30;;;18.60;55.90;;;;;;5005416;28;20517;-70
2021/04/19 00:22:30;;;;;;;18.67;16.77;;;18.60;56.00;;;;;;5010042;28;20030;-70
2021/04/19 00:24:55;;;;;;;19.52;15.75;;;18.60;56.00;;;;;;5004365;28;20025;-72
2021/04/19 00:27:21;;;;;;;17.42;15.73;;;18.60;56.20;;;;;;4998502;28;20652;-70
2021/04/19 00:29:47;;;;;;;17.58;15.77;;;18.60;56.20;;;;;;5010756;28;20044;-70
2021/04/19 00:32:12;;;;;;;18.13;16.23;;;18.60;56.20;;;;;;5004442;28;20022;-70
2021/04/19 00:34:38;;;;;;;17.50;15.65;;;18.50;56.20;;;;;;5002777;28;20399;-70
2021/04/19 00:37:03;;;;;;;17.48;15.63;;;18.50;56.10;;;;;;5009225;28;20116;-71
2021/04/19 00:39:30;;;;;;;18.25;15.05;;;18.50;56.20;;;;;;5007767;28;20125;-70
2021/04/19 00:41:56;;;;;;;16.52;14.82;;;18.50;56.20;;;;;;5008628;28;20109;-70
2021/04/19 00:44:22;;;;;;;19.10;15.30;;;18.50;56.20;;;;;;5008631;28;20076;-70
2021/04/19 00:46:48;;;;;;;17.65;13.85;;;18.50;56.30;;;;;;5003926;28;20395;-71
2021/04/19 00:49:15;;;;;;;22.10;15.05;;;18.50;56.50;;;;;;5004246;28;20029;-70
2021/04/19 00:51:41;;;;;;;15.75;13.98;;;18.50;56.50;;;;;;5010654;28;20029;-70
2021/04/19 00:54:08;;;;;;;16.73;14.10;;;18.50;56.40;;;;;;5011396;28;20025;-70
2021/04/19 00:56:33;;;;;;;16.17;14.48;;;18.50;56.30;;;;;;4998921;28;20026;-70
2021/04/19 00:58:59;;;;;;;15.50;13.90;;;18.50;56.30;;;;;;5002528;28;20033;-70
2021/04/19 01:01:26;;;;;;;18.10;14.18;;;18.50;56.80;;;;;;5007400;28;20057;-71
2021/04/19 01:03:52;;;;;;;15.40;13.63;;;18.50;56.40;;;;;;5008216;28;20057;-70
2021/04/19 01:06:18;;;;;;;15.05;13.50;;;18.50;56.30;;;;;;5001768;28;20041;-70
2021/04/19 01:08:44;;;;;;;14.57;13.07;;;18.50;56.30;;;;;;5004856;28;20116;-70
2021/04/19 01:11:09;;;;;;;15.35;13.30;;;18.50;56.30;;;;;;5008946;28;20079;-70
2021/04/19 01:13:35;;;;;;;14.05;12.38;;;18.50;56.30;;;;;;5001851;28;20101;-71
2021/04/19 01:16:01;;;;;;;14.38;12.93;;;18.50;56.30;;;;;;5004327;28;20172;-70
2021/04/19 01:18:27;;;;;;;14.30;12.80;;;18.40;56.20;;;;;;5011255;28;20038;-70
2021/04/19 01:20:52;;;;;;;13.10;11.70;;;18.40;56.20;;;;;;4999232;28;20494;-71
2021/04/19 01:23:19;;;;;;;14.05;12.18;;;18.50;56.20;;;;;;5002443;28;20498;-69
2021/04/19 01:25:45;;;;;;;13.80;11.52;;;18.40;56.20;;;;;;5009880;28;20419;-70
2021/04/19 01:28:11;;;;;;;13.35;11.95;;;18.50;56.20;;;;;;5004133;28;20062;-72
2021/04/19 01:30:41;;;;;;;14.75;12.45;;;18.40;56.10;;;;;;5003819;28;20128;-71
2021/04/19 01:33:07;;;;;;;12.43;11.13;;;18.50;56.20;;;;;;5000484;28;20428;-71
2021/04/19 01:35:33;;;;;;;13.23;11.82;;;18.40;56.10;;;;;;4999107;28;20121;-71
2021/04/19 01:37:59;;;;;;;12.65;11.02;;;18.40;56.20;;;;;;5005496;28;20036;-71
2021/04/19 01:40:27;;;;;;;12.25;11.00;;;18.40;56.10;;;;;;5010048;28;20457;-71
2021/04/19 01:42:53;;;;;;;11.77;10.55;;;18.40;56.10;;;;;;5005254;28;20126;-71
2021/04/19 01:45:18;;;;;;;12.52;11.07;;;18.40;56.20;;;;;;5003867;28;20105;-71
2021/04/19 01:47:45;;;;;;;11.75;10.55;;;18.40;56.20;;;;;;5010038;28;20049;-71
2021/04/19 01:50:21;;;;;;;11.85;10.35;;;18.40;56.30;;;;;;5005065;28;20495;-71
2021/04/19 01:52:47;;;;;;;11.48;10.32;;;18.30;56.20;;;;;;5008735;28;20029;-70
2021/04/19 01:55:15;;;;;;;11.73;10.43;;;18.40;56.30;;;;;;5011244;28;20394;-72
2021/04/19 01:57:43;;;;;;;13.05;10.50;;;18.40;56.20;;;;;;5009776;28;20461;-71
2021/04/19 02:00:11;;;;;;;13.40;10.50;;;18.40;56.20;;;;;;5007283;28;20030;-71
2021/04/19 02:02:48;;;;;;;12.88;10.52;;;18.40;56.20;;;;;;5006762;28;20026;-71
2021/04/19 02:05:27;;;;;;;11.85;10.30;;;18.50;56.20;;;;;;5004823;28;20137;-71
2021/04/19 02:08:03;;;;;;;11.23;9.88;;;18.40;56.30;;;;;;5009793;28;20033;-70
2021/04/19 02:10:42;;;;;;;11.68;9.48;;;18.40;56.30;;;;;;5003849;28;20067;-70
2021/04/19 02:13:21;;;;;;;13.93;9.63;;;18.40;56.80;;;;;;4999696;28;20030;-70
2021/04/19 02:15:55;;;;;;;14.18;9.93;;;18.30;56.40;;;;;;4999266;28;20492;-70
2021/04/19 02:18:35;;;;;;;12.27;9.75;;;18.30;56.40;;;;;;5006016;28;20030;-70
2021/04/19 02:21:10;;;;;;;12.97;9.73;;;18.30;56.50;;;;;;5010008;28;20018;-70
2021/04/19 02:23:49;;;;;;;10.60;9.45;;;18.30;56.60;;;;;;5008553;28;20018;-70
2021/04/19 02:26:23;;;;;;;11.60;9.02;;;18.30;56.50;;;;;;4998760;28;20030;-70
2021/04/19 02:29:17;;;;;;;11.20;9.00;;;18.30;56.50;;;;;;4997296;28;20022;-70
2021/04/19 02:31:53;;;;;;;10.40;8.63;;;18.20;56.50;;;;;;5010348;28;20030;-70
2021/04/19 02:34:20;;;;;;;11.77;8.38;;;18.30;56.60;;;;;;5010261;28;20064;-71
2021/04/19 02:36:49;;;;;;;12.55;9.00;;;18.30;56.60;;;;;;4990485;28;20026;-70
2021/04/19 02:39:16;;;;;;;11.95;8.77;;;18.20;56.60;;;;;;4998000;28;20128;-70
2021/04/19 02:41:44;;;;;;;11.70;8.38;;;18.20;56.70;;;;;;5009721;28;20033;-70
2021/04/19 02:44:11;;;;;;;10.05;8.27;;;18.20;56.70;;;;;;5001066;28;20042;-70
2021/04/19 02:46:38;;;;;;;11.88;8.20;;;18.20;56.80;;;;;;4994099;28;20053;-70
2021/04/19 02:49:06;;;;;;;10.05;7.93;;;18.20;56.70;;;;;;4994270;28;20034;-70
2021/04/19 02:51:32;;;;;;;9.27;8.13;;;18.20;56.80;;;;;;4998574;28;20045;-70
2021/04/19 02:54:01;;;;;;;10.13;7.70;;;18.20;56.90;;;;;;5010897;28;20054;-70
2021/04/19 02:56:29;;;;;;;10.15;7.60;;;18.20;56.80;;;;;;5011224;28;20045;-70
2021/04/19 02:58:58;;;;;;;10.27;8.52;;;18.20;57.00;;;;;;5007085;28;20507;-71
2021/04/19 03:01:29;;;;;;;10.98;7.65;;;18.20;57.00;;;;;;4998303;28;20033;-70
2021/04/19 03:03:59;;;;;;;10.73;7.75;;;18.10;57.70;;;;;;5009417;28;20084;-69
2021/04/19 03:06:26;;;;;;;10.93;8.43;;;18.10;59.80;;;;;;5013325;28;20034;-71
2021/04/19 03:08:56;;;;;;;10.45;7.43;;;18.10;59.30;;;;;;5014596;28;20018;-70
2021/04/19 03:11:30;;;;;;;12.50;7.63;;;18.10;57.60;;;;;;5013332;28;20022;-70
2021/04/19 03:13:59;;;;;;;10.20;7.18;;;18.10;57.30;;;;;;5014226;28;20141;-70
2021/04/19 03:16:27;;;;;;;8.60;6.68;;;18.10;57.30;;;;;;5013308;28;20038;-70
2021/04/19 03:18:54;;;;;;;8.25;7.00;;;18.10;57.20;;;;;;5010260;28;20022;-70
2021/04/19 03:21:23;;;;;;;8.93;6.70;;;18.10;57.20;;;;;;4993569;28;20480;-70
2021/04/19 03:23:51;;;;;;;7.93;6.88;;;18.10;57.10;;;;;;4994474;28;20030;-70
2021/04/19 03:26:18;;;;;;;9.05;6.80;;;18.10;57.30;;;;;;4994638;28;20058;-70
2021/04/19 03:28:48;;;;;;;8.27;6.45;;;18.10;57.20;;;;;;4998609;28;20448;-70
2021/04/19 03:31:31;;;;;;;9.45;7.05;;;18.10;57.10;;;;;;4999959;28;20057;-69
2021/04/19 03:34:01;;;;;;;8.60;6.60;;;18.20;57.20;;;;;;5010636;28;20526;-70
2021/04/19 03:36:30;;;;;;;9.52;6.82;;;18.30;56.70;;;;;;5006490;28;20022;-70
2021/04/19 03:38:57;;;;;;;9.48;6.82;;;18.40;56.50;;;;;;5010548;28;20030;-70
2021/04/19 03:41:23;;;;;;;10.25;6.97;;;18.40;56.30;;;;;;5012378;28;20077;-70
2021/04/19 03:43:55;;;;;;;9.43;6.53;;;18.40;56.20;;;;;;5012258;28;20099;-70
2021/04/19 03:46:23;;;;;;;9.93;6.20;;;18.40;56.30;;;;;;5000830;28;20026;-69
2021/04/19 03:49:04;;;;;;;8.52;6.13;;;18.30;56.40;;;;;;5012440;28;20443;-70
2021/04/19 03:51:32;;;;;;;9.25;6.30;;;18.30;56.40;;;;;;5012871;28;20034;-70
2021/04/19 03:53:59;;;;;;;7.57;5.93;;;18.20;56.90;;;;;;5004753;28;20037;-70
2021/04/19 03:56:27;;;;;;;9.73;6.28;;;18.10;57.10;;;;;;5008953;28;20440;-70
2021/04/19 03:58:55;;;;;;;9.23;5.95;;;18.10;57.10;;;;;;5003631;28;20099;-70
2021/04/19 04:01:21;;;;;;;9.45;5.90;;;18.20;57.20;;;;;;5013226;28;20026;-70
2021/04/19 04:03:49;;;;;;;9.13;5.68;;;18.10;57.20;;;;;;5011532;28;20068;-70
2021/04/19 04:06:16;;;;;;;8.60;5.35;;;18.10;57.20;;;;;;5023512;28;20034;-70
2021/04/19 04:08:42;;;;;;;8.48;5.97;;;18.10;57.20;;;;;;5004902;28;20029;-70
2021/04/19 04:11:09;;;;;;;8.60;5.80;;;18.10;57.10;;;;;;5008307;28;20034;-70
2021/04/19 04:13:35;;;;;;;11.48;6.03;;;18.10;57.10;;;;;;5006298;28;20124;-70
2021/04/19 04:16:01;;;;;;;8.98;6.07;;;18.10;57.00;;;;;;5004093;28;20104;-70
2021/04/19 04:18:27;;;;;;;7.00;5.18;;;18.10;56.90;;;;;;5012813;28;20123;-70
2021/04/19 04:20:52;;;;;;;10.98;6.07;;;18.10;56.90;;;;;;5005039;28;20064;-70
2021/04/19 04:23:19;;;;;;;7.72;5.30;;;18.10;56.90;;;;;;5003907;28;20049;-70
2021/04/19 04:25:45;;;;;;;7.05;5.28;;;18.10;56.80;;;;;;5011623;28;20068;-70
2021/04/19 04:28:12;;;;;;;8.25;5.35;;;18.10;57.10;;;;;;5012862;28;20435;-70
2021/04/19 04:30:37;;;;;;;8.13;5.30;;;18.00;56.80;;;;;;5003079;28;20488;-69
2021/04/19 04:33:04;;;;;;;6.25;5.22;;;18.10;56.80;;;;;;4993178;28;20026;-69
2021/04/19 04:35:31;;;;;;;6.68;4.82;;;18.20;56.70;;;;;;5002149;28;20025;-69
2021/04/19 04:37:57;;;;;;;9.43;5.32;;;18.20;56.40;;;;;;5005306;28;20030;-70
2021/04/19 04:40:27;;;;;;;7.68;5.03;;;18.30;56.20;;;;;;5002043;28;20038;-69
2021/04/19 04:43:15;;;;;;;7.88;5.50;;;18.40;56.00;;;;;;4986983;28;20425;-69
2021/04/19 04:45:42;;;;;;;7.75;4.72;;;18.50;56.00;;;;;;5003650;28;20125;-68
2021/04/19 04:48:42;;;;;;;9.75;5.30;;;18.50;55.90;;;;;;5006649;28;20029;-71
2021/04/19 04:51:13;;;;;;;7.43;5.03;;;18.50;55.90;;;;;;5005667;28;20026;-68
2021/04/19 04:53:44;;;;;;;8.43;4.68;;;18.50;55.90;;;;;;5003282;28;20034;-69
2021/04/19 04:56:13;;;;;;;10.82;5.10;;;18.50;56.00;;;;;;5001867;28;20419;-69
2021/04/19 04:58:42;;;;;;;9.20;4.85;;;18.50;56.00;;;;;;5000578;28;20034;-69
2021/04/19 05:01:08;;;;;;;9.00;5.05;;;18.60;56.00;;;;;;5003121;28;20034;-69
2021/04/19 05:03:37;;;;;;;9.02;5.20;;;18.60;55.80;;;;;;5001411;28;20073;-69
2021/04/19 05:06:06;;;;;;;12.10;7.00;;;18.70;55.90;;;;;;4997915;28;20054;-68
2021/04/19 05:08:32;;;;;;;13.93;6.38;;;18.80;56.00;;;;;;5005766;28;20026;-69
2021/04/19 05:10:58;;;;;;;11.07;5.93;;;18.80;56.10;;;;;;5005140;28;20514;-73
2021/04/19 05:13:24;;;;;;;14.15;5.85;;;18.80;55.60;;;;;;5004240;28;20057;-73
2021/04/19 05:15:50;;;;;;;13.93;5.07;;;18.80;55.60;;;;;;4997306;28;20076;-73
2021/04/19 05:18:17;;;;;;;11.82;5.20;;;18.90;55.40;;;;;;4999461;28;20035;-72
2021/04/19 05:20:44;;;;;;;13.48;6.05;;;18.90;55.30;;;;;;5002570;28;20880;-72
2021/04/19 05:23:10;;;;;;;15.13;5.50;;;19.00;55.80;;;;;;5001628;28;20099;-72
2021/04/19 05:25:36;;;;;;;16.17;5.50;;;19.00;56.50;;;;;;4989810;28;20029;-73
2021/04/19 05:28:02;;;;;;;19.33;5.85;;;19.00;57.40;;;;;;5004449;28;20033;-71
2021/04/19 05:30:29;;;;;;;17.00;5.75;;;19.00;57.80;;;;;;5004609;28;20036;-72
2021/04/19 05:32:57;;;;;;;15.40;5.75;;;19.00;58.10;;;;;;5005512;28;20017;-71
2021/04/19 05:35:22;;;;;;;14.20;5.63;;;19.10;57.90;;;;;;5004634;28;20048;-73
2021/04/19 05:37:50;;;;;;;15.07;5.40;;;19.20;57.60;;;;;;5004189;28;20678;-73
2021/04/19 05:40:17;;;;;;;9.18;5.22;;;19.20;57.20;;;;;;4998285;28;20041;-73
2021/04/19 05:42:43;;;;;;;12.93;5.40;;;19.20;56.90;;;;;;5004659;28;20844;-71
2021/04/19 05:45:09;;;;;;;13.02;5.30;;;19.20;56.70;;;;;;5005849;28;20033;-71
2021/04/19 05:47:37;;;;;;;10.82;4.80;;;19.20;56.80;;;;;;4998134;28;20667;-72
2021/04/19 05:50:04;;;;;;;9.93;5.15;;;19.20;56.60;;;;;;5004142;28;20064;-71
2021/04/19 05:52:30;;;;;;;10.75;4.95;;;19.20;56.40;;;;;;5004685;28;20029;-72
2021/04/19 05:54:55;;;;;;;11.02;5.07;;;19.10;56.30;;;;;;5003024;28;20399;-71
2021/04/19 05:57:28;;;;;;;14.77;5.72;;;19.00;56.80;;;;;;5005086;28;20045;-72
2021/04/19 06:00:10;;;;;;;16.02;4.97;;;19.00;57.40;;;;;;4993488;28;20034;-72
2021/04/19 06:02:53;;;;;;;12.02;5.10;;;19.00;57.70;;;;;;4999821;28;20050;-71
2021/04/19 06:05:28;;;;;;;10.43;5.07;;;19.00;57.90;;;;;;4995237;28;20026;-71
2021/04/19 06:08:02;;;;;;;12.60;5.03;;;18.90;58.20;;;;;;5004857;28;20034;-72
2021/04/19 06:10:36;;;;;;;9.10;4.40;;;18.90;58.30;;;;;;4998116;28;20037;-72
2021/04/19 06:13:03;;;;;;;9.65;4.70;;;18.90;58.40;;;;;;4999942;28;20026;-72
2021/04/19 06:15:30;;;;;;;9.82;4.40;;;18.90;58.50;;;;;;5003065;28;20045;-73
2021/04/19 06:17:56;;;;;;;11.70;5.00;;;18.80;58.50;;;;;;5011795;28;20030;-72
2021/04/19 06:20:22;;;;;;;8.90;4.68;;;18.80;58.50;;;;;;5003523;28;20057;-72
2021/04/19 06:22:50;;;;;;;8.00;4.38;;;18.70;58.50;;;;;;4996829;28;20068;-72
2021/04/19 06:25:18;;;;;;;8.48;4.70;;;18.80;58.40;;;;;;5002984;28;20038;-71
2021/04/19 06:27:44;;;;;;;8.45;4.22;;;18.70;58.30;;;;;;4998889;28;20027;-72
2021/04/19 06:30:21;;;;;;;9.80;4.40;;;18.70;58.30;;;;;;5001468;28;20724;-73
2021/04/19 06:32:49;;;;;;;6.78;4.40;;;18.80;58.10;;;;;;5002021;28;20030;-71
2021/04/19 06:35:18;;;;;;;9.40;4.32;;;18.70;57.90;;;;;;5004570;28;20141;-71
2021/04/19 06:37:49;;;;;;;7.70;4.20;;;18.80;57.70;;;;;;5004417;28;20447;-72
2021/04/19 06:40:15;;;;;;;;;;;18.80;57.40;;;;;;5006824;28;20569;-71
2021/04/19 06:42:41;;;;;;;7.53;3.97;;;18.80;57.20;;;;;;5006382;28;19909;-72
2021/04/19 06:45:07;;;;;;;8.90;3.92;;;18.90;57.10;;;;;;5002985;28;20032;-72
2021/04/19 06:47:35;;;;;;;7.70;4.28;;;18.80;57.10;;;;;;5006530;28;20034;-72
2021/04/19 06:50:03;;;;;;;8.23;4.10;;;18.80;57.10;;;;;;5008277;28;20026;-71
2021/04/19 06:52:31;;;;;;;9.20;4.30;;;18.90;57.10;;;;;;5007038;28;20018;-72
2021/04/19 06:54:57;;;;;;;6.70;3.80;;;18.80;57.10;;;;;;5006708;28;20061;-71
2021/04/19 06:57:23;;;;;;;7.05;4.00;;;18.80;57.10;;;;;;5008306;28;20038;-71
2021/04/19 06:59:49;;;;;;;7.18;4.15;;;18.80;57.10;;;;;;5006866;28;20034;-72
2021/04/19 07:02:24;;;;;;;5.93;4.00;;;18.80;57.10;;;;;;5005629;28;20030;-71
2021/04/19 07:04:52;;;;;;;6.50;3.60;;;18.80;57.10;;;;;;5007677;28;20053;-71
2021/04/19 07:07:45;;;;;;;7.28;4.28;;;18.70;57.10;;;;;;5002782;28;20038;-72
2021/04/19 07:10:12;;;;;;;5.82;3.53;;;18.70;57.10;;;;;;5004624;28;20034;-72
2021/04/19 07:12:40;;;;;;;8.27;4.00;;;18.80;56.90;;;;;;5001913;28;20030;-71
2021/04/19 07:15:06;;;;;;;7.32;3.67;;;18.80;56.70;;;;;;5003649;28;20045;-72
2021/04/19 07:17:32;;;;;;;7.38;3.83;;;19.00;56.30;;;;;;5001394;28;20033;-71
2021/04/19 07:19:58;;;;;;;6.68;3.50;;;19.00;56.10;;;;;;5006394;28;20037;-71
2021/04/19 07:22:23;;;;;;;7.15;4.10;;;19.00;55.90;;;;;;5004197;28;20041;-71
2021/04/19 07:24:49;;;;;;;8.10;3.80;;;19.00;55.80;;;;;;5006131;28;20026;-72
2021/04/19 07:27:16;;;;;;;7.55;3.80;;;19.00;55.70;;;;;;5007206;28;20475;-71
2021/04/19 07:29:42;;;;;;;6.78;3.65;;;19.00;55.60;;;;;;5005959;28;20041;-71
2021/04/19 07:32:08;;;;;;;6.80;3.78;;;19.00;55.70;;;;;;5005697;28;20055;-71
2021/04/19 07:34:35;;;;;;;6.50;3.42;;;19.00;55.50;;;;;;5006327;28;20701;-72
2021/04/19 07:37:01;;;;;;;7.40;3.70;;;19.10;55.30;;;;;;5006541;28;20025;-72
2021/04/19 07:39:30;;;;;;;6.97;3.67;;;19.10;55.10;;;;;;5006359;28;20026;-71
2021/04/19 07:41:58;;;;;;;5.50;3.53;;;19.10;54.90;;;;;;5006061;28;20072;-72
2021/04/19 07:44:35;;;;;;;7.13;3.55;;;19.10;54.70;;;;;;5004976;28;20044;-71
2021/04/19 07:47:33;;;;;;;6.15;3.50;;;19.20;54.70;;;;;;5006039;28;20030;-71
2021/04/19 07:50:18;;;;;;;6.13;3.40;;;19.20;54.40;;;;;;5006959;28;20053;-73
2021/04/19 07:53:00;;;;;;;6.03;3.58;;;19.10;54.60;;;;;;5006316;28;20037;-71
2021/04/19 07:55:31;;;;;;;5.88;3.58;;;19.00;54.70;;;;;;5005799;28;20034;-72
2021/04/19 07:57:57;;;;;;;6.07;3.50;;;19.10;54.60;;;;;;5005264;28;20025;-71
2021/04/19 08:00:31;;;;;;;6.75;3.72;;;19.20;54.50;;;;;;5003721;28;20125;-73
2021/04/19 08:03:08;;;;;;;6.03;3.60;;;19.00;54.50;;;;;;5004925;28;20046;-71
2021/04/19 08:05:33;;;;;;;6.22;3.78;;;19.00;54.60;;;;;;4999517;28;20721;-72
2021/04/19 08:07:59;;;;;;;7.82;3.63;;;19.00;54.60;;;;;;5004515;28;20079;-73
2021/04/19 08:10:25;;;;;;;9.70;3.70;;;19.00;54.50;;;;;;5004718;28;20029;-69
2021/04/19 08:13:01;;;;;;;7.43;3.60;;;19.00;54.40;;;;;;5005237;28;20026;-70
2021/04/19 08:15:27;;;;;;;9.40;4.00;;;19.20;54.40;;;;;;5004286;28;20193;-69
2021/04/19 08:18:03;;;;;;;8.02;3.75;;;19.80;53.20;;;;;;5006543;28;20108;-71
2021/04/19 08:20:29;;;;;;;8.15;3.67;;;20.10;52.40;;;;;;5006746;28;20923;-69
2021/04/19 08:23:06;;;;;;;14.27;4.53;;;21.20;50.00;;;;;;5005271;28;20046;-70
2021/04/19 08:25:37;;;;;;;10.23;3.88;;;21.10;49.70;;;;;;4993112;28;20108;-69
2021/04/19 08:28:13;;;;;;;6.15;3.63;;;20.60;50.00;;;;;;4996812;28;20085;-70
2021/04/19 08:30:42;;;;;;;7.38;4.00;;;20.30;50.60;;;;;;5020274;28;20121;-71
2021/04/19 08:33:09;;;;;;;7.45;4.10;;;20.20;50.80;;;;;;4997568;28;20022;-70
2021/04/19 08:35:37;;;;;;;6.82;4.05;;;20.50;50.30;;;;;;5004965;28;20022;-70
2021/04/19 08:38:04;;;;;;;8.07;4.05;;;20.70;50.50;;;;;;5001096;28;20491;-70
2021/04/19 08:40:31;;;;;;;9.02;3.85;;;20.70;50.00;;;;;;5005228;28;20462;-69
2021/04/19 08:42:57;;;;;;;7.55;4.10;;;20.80;49.80;;;;;;5001097;28;20037;-70
2021/04/19 08:45:25;;;;;;;12.77;5.00;;;21.80;48.40;;;;;;4998040;28;20057;-70
2021/04/19 08:47:52;;;;;;;14.93;6.78;;;21.30;48.40;;;;;;5001682;28;20041;-70
2021/04/19 08:50:22;;;;;;;16.17;7.97;;;20.90;49.40;;;;;;4993536;28;20022;-70
2021/04/19 08:52:48;;;;;;;22.73;9.25;;;20.70;50.20;;;;;;4998468;28;20403;-70
2021/04/19 08:55:14;;;;;;;26.23;11.00;;;21.00;50.20;;;;;;4997825;28;20029;-70
2021/04/19 08:57:42;;;;;;;13.20;6.20;;;20.90;49.90;;;;;;4999083;28;20577;-64
2021/04/19 09:00:09;;;;;;;13.15;6.75;;;21.50;48.80;;;;;;5003655;28;20087;-62
2021/04/19 09:02:34;;;;;;;18.60;8.18;;;22.40;47.30;;;;;;4998703;28;20034;-62
2021/04/19 09:05:16;;;;;;;16.48;7.28;;;23.00;45.90;;;;;;4993777;28;20407;-63
2021/04/19 09:07:49;;;;;;;14.32;7.63;;;23.90;44.80;;;;;;4994198;28;20229;-65
2021/04/19 09:10:21;;;;;;;17.67;8.15;;;24.20;43.90;;;;;;4984436;28;20023;-65
2021/04/19 09:12:47;;;;;;;16.10;7.75;;;24.90;42.80;;;;;;4983509;28;20026;-65
2021/04/19 09:15:17;;;;;;;14.80;7.03;;;25.10;42.20;;;;;;4987449;28;20030;-65
2021/04/19 09:17:44;;;;;;;18.00;8.05;;;24.50;42.40;;;;;;4983884;28;20033;-63
2021/04/19 09:20:12;;;;;;;19.20;8.45;;;23.70;43.40;;;;;;4998242;28;20053;-65
2021/04/19 09:22:39;;;;;;;17.40;7.53;;;22.80;45.30;;;;;;4999120;28;20036;-62
2021/04/19 09:25:13;;;;;;;15.23;7.32;;;22.40;46.60;;;;;;4993232;28;20112;-62
2021/04/19 09:27:57;;;;;;;16.35;7.43;;;21.80;47.70;;;;;;5000052;28;20063;-62
2021/04/19 09:30:23;;;;;;;15.32;6.85;;;21.40;48.80;;;;;;5001410;28;20068;-63
2021/04/19 09:33:08;;;;;;;13.98;7.25;;;21.60;48.90;;;;;;4995955;28;20060;-63
2021/04/19 09:35:42;;;;;;;14.15;7.88;;;22.10;48.10;;;;;;4994590;28;20030;-63
2021/04/19 09:38:08;;;;;;;15.55;7.93;;;22.20;47.80;;;;;;4994958;28;20468;-63
2021/04/19 09:41:13;;;;;;;15.52;6.53;;;21.70;48.30;;;;;;4990704;28;20022;-64
2021/04/19 09:43:44;;;;;;;10.90;6.35;;;21.40;49.50;;;;;;4994847;28;20516;-62
2021/04/19 09:46:16;;;;;;;;;;;21.10;49.70;;;;;;4991039;28;20065;-63
2021/04/19 09:48:46;;;;;;;15.20;6.38;;;20.90;50.20;;;;;;4996675;28;19913;-64
2021/04/19 09:51:23;;;;;;;14.25;6.88;;;20.70;50.40;;;;;;4997274;28;20033;-62
2021/04/19 09:54:00;;;;;;;10.70;6.05;;;20.60;50.80;;;;;;4998172;28;20026;-63
2021/04/19 09:56:47;;;;;;;11.75;6.20;;;20.40;51.10;;;;;;4984704;28;20038;-64
2021/04/19 09:59:19;;;;;;;14.52;6.57;;;20.30;51.60;;;;;;4990565;28;20089;-63
2021/04/19 10:01:47;;;;;;;14.35;6.80;;;20.30;51.80;;;;;;4993981;28;20519;-65
2021/04/19 10:04:13;;;;;;;12.23;5.90;;;20.30;51.90;;;;;;4998201;28;20555;-63
2021/04/19 10:06:44;;;;;;;13.98;6.03;;;20.30;52.40;;;;;;5002715;28;20112;-69
2021/04/19 10:09:12;;;;;;;12.23;6.00;;;20.30;51.90;;;;;;5001460;28;20033;-64
2021/04/19 10:11:47;;;;;;;12.93;6.10;;;20.40;51.70;;;;;;4998590;28;20112;-63
2021/04/19 10:14:15;;;;;;;12.68;5.95;;;20.40;52.10;;;;;;4999388;28;20026;-64
2021/04/19 10:16:46;;;;;;;14.02;6.43;;;20.40;51.70;;;;;;4997195;28;20021;-64
2021/04/19 10:19:13;;;;;;;14.80;6.05;;;20.50;51.50;;;;;;4998173;28;20030;-64
2021/04/19 10:21:39;;;;;;;15.88;6.13;;;20.50;51.50;;;;;;4990572;28;20034;-62
2021/04/19 10:24:14;;;;;;;12.65;6.50;;;20.50;51.40;;;;;;4996735;28;20030;-63
2021/04/19 10:26:40;;;;;;;12.98;5.88;;;20.50;51.50;;;;;;4987484;28;20128;-63
2021/04/19 10:29:14;;;;;;;12.70;5.72;;;20.40;51.60;;;;;;5000235;28;20535;-64
2021/04/19 10:32:06;;;;;;;11.93;5.68;;;20.30;52.00;;;;;;5001756;28;20531;-63
2021/04/19 10:34:33;;;;;;;13.02;5.40;;;20.10;52.20;;;;;;4997857;28;20033;-62
2021/04/19 10:37:01;;;;;;;13.18;5.72;;;20.20;52.40;;;;;;5007378;28;20038;-63
2021/04/19 10:39:28;;;;;;;10.65;5.80;;;20.20;52.30;;;;;;5006604;28;20030;-63
2021/04/19 10:41:57;;;;;;;12.02;5.78;;;20.30;52.00;;;;;;5004047;28;20099;-63
2021/04/19 10:44:32;;;;;;;10.43;5.25;;;20.90;51.30;;;;;;4994374;28;20480;-63
2021/04/19 10:46:57;;;;;;;12.40;5.53;;;21.90;48.30;;;;;;4995593;28;20065;-63
2021/04/19 10:49:26;;;;;;;12.63;5.40;;;21.80;48.30;;;;;;4990436;28;20073;-62
2021/04/19 10:52:00;;;;;;;11.73;5.30;;;23.20;46.70;;;;;;4992602;28;20369;-62
2021/04/19 10:54:34;;;;;;;8.98;4.63;;;23.00;45.80;;;;;;5002115;28;20026;-63
2021/04/19 10:57:01;;;;;;;11.65;5.32;;;22.10;47.20;;;;;;5005422;28;20072;-62
2021/04/19 10:59:28;;;;;;;12.75;5.60;;;21.90;48.10;;;;;;4996149;28;20034;-62
2021/04/19 11:02:09;;;;;;;10.30;4.85;;;22.20;48.10;;;;;;4991442;28;20125;-63
2021/04/19 11:04:35;;;;;;;10.15;5.00;;;21.80;47.70;;;;;;4997912;28;20036;-63
2021/04/19 11:07:31;;;;;;;9.13;4.63;;;21.50;48.80;;;;;;5004570;28;20044;-64
2021/04/19 11:10:29;;;;;;;9.55;5.03;;;21.20;49.40;;;;;;4998295;28;20053;-62
2021/04/19 11:13:04;;;;;;;10.30;5.05;;;21.10;49.70;;;;;;4968666;28;20503;-63
2021/04/19 11:15:32;;;;;;;9.73;5.30;;;21.10;49.80;;;;;;4992298;28;20437;-62
2021/04/19 11:18:00;;;;;;;10.60;5.15;;;21.40;49.30;;;;;;4997500;28;20521;-63
2021/04/19 11:20:29;;;;;;;9.27;4.75;;;22.50;47.60;;;;;;4988861;28;20518;-63
2021/04/19 11:22:58;;;;;;;9.77;5.10;;;23.20;45.70;;;;;;4988443;28;20500;-64
2021/04/19 11:25:27;;;;;;;9.88;5.25;;;22.30;46.70;;;;;;4991941;28;20113;-63
2021/04/19 11:28:14;;;;;;;11.73;4.97;;;21.70;48.20;;;;;;4993878;28;20065;-63
2021/04/19 11:30:40;;;;;;;9.80;5.05;;;21.30;49.30;;;;;;5002266;28;20053;-65
2021/04/19 11:33:13;;;;;;;11.55;6.63;;;21.30;49.60;;;;;;4989705;28;20064;-65
2021/04/19 11:35:41;;;;;;;10.50;5.60;;;21.50;49.20;;;;;;5002671;28;20030;-62
2021/04/19 11:38:09;;;;;;;10.70;5.00;;;21.50;49.20;;;;;;4997876;28;20026;-63
2021/04/19 11:40:40;;;;;;;10.60;4.90;;;21.50;49.40;;;;;;5002756;28;20925;-62
2021/04/19 11:43:25;;;;;;;10.20;5.38;;;21.20;49.70;;;;;;4995558;28;20870;-63
2021/04/19 11:46:06;;;;;;;11.18;6.07;;;21.00;50.40;;;;;;4998682;28;20050;-63
2021/04/19 11:48:35;;;;;;;10.68;5.38;;;20.80;50.50;;;;;;4998917;28;20030;-63
2021/04/19 11:51:01;;;;;;;11.57;4.72;;;20.80;50.90;;;;;;5006397;28;20559;-63
2021/04/19 11:53:31;;;;;;;10.88;4.93;;;20.70;50.90;;;;;;5003269;28;20057;-62
2021/04/19 11:55:58;;;;;;;10.10;5.20;;;20.70;51.20;;;;;;5006282;28;20045;-64
2021/04/19 11:58:23;;;;;;;12.00;5.00;;;20.60;51.40;;;;;;5000727;28;20084;-63
2021/04/19 12:00:52;;;;;;;10.73;5.38;;;20.70;51.50;;;;;;4997078;28;20460;-63
2021/04/19 12:03:18;;;;;;;11.15;4.88;;;20.80;50.90;;;;;;4999139;28;20523;-64
2021/04/19 12:05:44;;;;;;;12.90;5.03;;;20.90;51.00;;;;;;4998268;28;20339;-63
2021/04/19 12:08:09;;;;;;;11.23;5.57;;;20.90;50.90;;;;;;4996502;28;20512;-61
2021/04/19 12:10:38;;;;;;;12.95;6.78;;;20.90;50.80;;;;;;4999734;28;20408;-65
2021/04/19 12:13:04;;;;;;;12.27;6.68;;;20.90;50.50;;;;;;4999971;28;20041;-63
2021/04/19 12:15:30;;;;;;;9.85;6.85;;;21.10;50.10;;;;;;5000381;28;20392;-62
2021/04/19 12:17:55;;;;;;;11.82;6.90;;;21.30;49.80;;;;;;4995842;28;20082;-62
2021/04/19 12:20:21;;;;;;;11.60;7.20;;;21.40;49.20;;;;;;5000774;28;20045;-63
2021/04/19 12:22:46;;;;;;;11.40;5.80;;;21.40;48.50;;;;;;5002764;28;20040;-63
2021/04/19 12:25:12;;;;;;;9.07;5.25;;;21.50;49.70;;;;;;4999586;28;20392;-62
2021/04/19 12:27:38;;;;;;;11.75;5.97;;;21.40;49.40;;;;;;4995825;28;20556;-63
2021/04/19 12:30:05;;;;;;;11.43;7.53;;;21.30;49.70;;;;;;4997068;28;20025;-63
2021/04/19 12:32:30;;;;;;;12.57;8.48;;;21.20;49.80;;;;;;4996610;28;20019;-62
2021/04/19 12:34:56;;;;;;;13.73;8.13;;;21.30;49.40;;;;;;4994258;28;20495;-62
2021/04/19 12:37:22;;;;;;;11.35;6.15;;;21.50;49.40;;;;;;4993052;28;20034;-64
2021/04/19 12:39:48;;;;;;;13.18;7.50;;;21.50;49.20;;;;;;4998234;28;20030;-62
2021/04/19 12:42:14;;;;;;;11.68;6.50;;;21.50;48.80;;;;;;4993377;28;20022;-62
2021/04/19 12:44:40;;;;;;;9.65;6.22;;;21.60;48.80;;;;;;5000261;28;20034;-64
2021/04/19 12:47:06;;;;;;;13.60;5.80;;;21.50;49.60;;;;;;5001793;28;20033;-62
2021/04/19 12:49:31;;;;;;;25.55;13.75;;;21.40;49.30;;;;;;4990151;28;20033;-64